Time,TemperatureF,DewpointF,PressureIn,WindDirection,WindDirectionDegrees,WindSpeedMPH,WindSpeedGustMPH,Humidity,HourlyPrecipIn,Conditions,Clouds,dailyrainin,SoftwareType,DateUTC
2013-05-25 00:02:00,38.0,34.0,30.40,NNE,24,0.0,0.0,86,0.00,,,0.01,,2013-05-25 04:02:00,
2013-05-25 00:13:00,38.0,34.0,30.40,NNE,24,0.0,0.0,86,0.00,,,0.01,,2013-05-25 04:13:00,
2013-05-25 00:23:00,38.0,35.0,30.40,NNE,24,0.0,0.0,89,0.00,,,0.01,,2013-05-25 04:23:00,
2013-05-25 00:33:00,38.0,35.0,30.40,NNE,24,0.0,0.0,90,0.00,,,0.01,,2013-05-25 04:33:00,
2013-05-25 00:43:00,38.0,35.0,30.40,NNE,24,0.0,0.0,90,0.00,,,0.01,,2013-05-25 04:43:00,
2013-05-25 00:53:00,38.0,35.0,30.40,NNE,24,0.0,0.0,90,0.00,,,0.01,,2013-05-25 04:53:00,
2013-05-25 01:02:00,37.0,34.0,30.41,NNE,24,0.0,0.0,90,0.00,,,0.01,,2013-05-25 05:02:00,
2013-05-25 01:12:00,37.0,34.0,30.41,NNE,24,0.0,0.0,90,0.00,,,0.01,,2013-05-25 05:12:00,
2013-05-25 01:22:00,37.0,34.0,30.41,NNE,24,0.0,0.0,90,0.00,,,0.01,,2013-05-25 05:22:00,
2013-05-25 01:32:00,36.0,34.0,30.41,NNE,24,0.0,0.0,91,0.00,,,0.01,,2013-05-25 05:32:00,
2013-05-25 01:43:00,36.0,34.0,30.41,NNE,24,0.0,0.0,91,0.00,,,0.01,,2013-05-25 05:43:00,
2013-05-25 01:52:00,36.0,34.0,30.41,NNE,24,0.0,0.0,92,0.00,,,0.01,,2013-05-25 05:52:00,
2013-05-25 02:02:00,36.0,34.0,30.41,NNE,24,0.0,0.0,93,0.00,,,0.01,,2013-05-25 06:02:00,
2013-05-25 02:12:00,36.0,34.0,30.41,NNE,24,0.0,0.0,94,0.00,,,0.01,,2013-05-25 06:12:00,
2013-05-25 02:21:00,36.0,34.0,30.41,NNE,24,0.0,0.0,94,0.00,,,0.01,,2013-05-25 06:21:00,
2013-05-25 02:32:00,36.0,34.0,30.40,NNE,24,0.0,0.0,94,0.00,,,0.01,,2013-05-25 06:32:00,
2013-05-25 02:42:00,36.0,34.0,30.40,NNE,24,0.0,0.0,94,0.00,,,0.01,,2013-05-25 06:42:00,
2013-05-25 02:52:00,36.0,34.0,30.41,NNE,24,0.0,0.0,94,0.00,,,0.01,,2013-05-25 06:52:00,
2013-05-25 03:01:00,35.0,33.0,30.41,NNE,24,0.0,0.0,94,0.00,,,0.01,,2013-05-25 07:01:00,
2013-05-25 03:11:00,35.0,33.0,30.41,NNE,24,0.0,0.0,94,0.00,,,0.01,,2013-05-25 07:11:00,
2013-05-25 03:22:00,35.0,34.0,30.41,NNE,24,0.0,0.0,95,0.00,,,0.01,,2013-05-25 07:22:00,
2013-05-25 03:32:00,35.0,34.0,30.40,NNE,24,0.0,0.0,95,0.00,,,0.01,,2013-05-25 07:32:00,
2013-05-25 03:42:00,35.0,34.0,30.40,NNE,24,0.0,0.0,95,0.00,,,0.01,,2013-05-25 07:42:00,
2013-05-25 03:52:00,34.0,32.0,30.40,NNE,24,0.0,0.0,94,0.00,,,0.01,,2013-05-25 07:52:00,
2013-05-25 04:02:00,34.0,33.0,30.40,NNE,24,0.0,0.0,95,0.00,,,0.01,,2013-05-25 08:02:00,
2013-05-25 04:11:00,34.0,33.0,30.40,NNE,24,0.0,0.0,95,0.00,,,0.01,,2013-05-25 08:11:00,
2013-05-25 04:22:00,34.0,33.0,30.41,South,182,0.0,0.0,95,0.00,,,0.01,,2013-05-25 08:22:00,
2013-05-25 04:32:00,34.0,33.0,30.40,South,182,0.0,0.0,95,0.01,,,0.02,,2013-05-25 08:32:00,
2013-05-25 04:42:00,34.0,33.0,30.40,South,174,0.0,0.0,95,0.01,,,0.02,,2013-05-25 08:42:00,
2013-05-25 04:51:00,34.0,33.0,30.40,South,174,0.0,0.0,95,0.01,,,0.02,,2013-05-25 08:51:00,
2013-05-25 05:02:00,33.0,32.0,30.40,South,174,0.0,0.0,95,0.01,,,0.02,,2013-05-25 09:02:00,
2013-05-25 05:11:00,33.0,32.0,30.40,South,174,0.0,0.0,95,0.01,,,0.02,,2013-05-25 09:11:00,
2013-05-25 05:21:00,33.0,32.0,30.41,South,174,0.0,0.0,95,0.01,,,0.02,,2013-05-25 09:21:00,
2013-05-25 05:33:00,33.0,32.0,30.41,South,174,0.0,0.0,95,0.00,,,0.02,,2013-05-25 09:33:00,
2013-05-25 05:43:00,33.0,32.0,30.41,South,174,0.0,0.0,95,0.00,,,0.02,,2013-05-25 09:43:00,
2013-05-25 05:53:00,32.0,31.0,30.41,South,174,0.0,0.0,95,0.00,,,0.02,,2013-05-25 09:53:00,
2013-05-25 06:03:00,32.0,31.0,30.42,South,174,0.0,0.0,95,0.00,,,0.02,,2013-05-25 10:03:00,
2013-05-25 06:12:00,32.0,31.0,30.42,South,174,0.0,0.0,95,0.00,,,0.02,,2013-05-25 10:12:00,
2013-05-25 06:23:00,32.0,31.0,30.42,South,174,0.0,0.0,96,0.00,,,0.02,,2013-05-25 10:23:00,
2013-05-25 06:33:00,32.0,31.0,30.42,South,174,0.0,0.0,96,0.00,,,0.02,,2013-05-25 10:33:00,
2013-05-25 06:42:00,32.0,31.0,30.42,South,174,0.0,0.0,96,0.00,,,0.02,,2013-05-25 10:42:00,
2013-05-25 06:52:00,33.0,32.0,30.42,South,174,0.0,0.0,96,0.00,,,0.02,,2013-05-25 10:52:00,
2013-05-25 07:02:00,34.0,33.0,30.42,South,174,0.0,0.0,96,0.00,,,0.02,,2013-05-25 11:02:00,
2013-05-25 07:12:00,34.0,33.0,30.42,South,174,0.0,0.0,96,0.00,,,0.02,,2013-05-25 11:12:00,
2013-05-25 07:22:00,34.0,33.0,30.42,South,174,0.0,0.0,96,0.00,,,0.02,,2013-05-25 11:22:00,
2013-05-25 07:32:00,34.0,33.0,30.42,South,174,0.0,0.0,97,0.00,,,0.02,,2013-05-25 11:32:00,
2013-05-25 07:42:00,34.0,33.0,30.42,South,174,0.0,0.0,97,0.00,,,0.02,,2013-05-25 11:42:00,
2013-05-25 07:52:00,37.0,36.0,30.43,South,174,0.0,0.0,98,0.00,,,0.02,,2013-05-25 11:52:00,
2013-05-25 08:01:00,37.0,36.0,30.44,South,174,0.0,0.0,98,0.00,,,0.02,,2013-05-25 12:01:00,
2013-05-25 08:12:00,37.0,36.0,30.44,South,174,0.0,0.0,98,0.00,,,0.02,,2013-05-25 12:12:00,
2013-05-25 08:22:00,38.0,37.0,30.45,South,174,0.0,0.0,98,0.00,,,0.02,,2013-05-25 12:22:00,
2013-05-25 08:32:00,40.0,39.0,30.45,South,174,0.0,0.0,98,0.00,,,0.02,,2013-05-25 12:32:00,
2013-05-25 08:42:00,40.0,39.0,30.45,South,174,0.0,0.0,98,0.00,,,0.02,,2013-05-25 12:42:00,
2013-05-25 08:52:00,41.0,39.0,30.46,South,184,0.0,0.0,94,0.00,,,0.02,,2013-05-25 12:52:00,
2013-05-25 09:02:00,43.0,40.0,30.45,SSW,196,0.0,0.0,90,0.00,,,0.02,,2013-05-25 13:02:00,
2013-05-25 09:11:00,43.0,40.0,30.45,SSW,196,0.0,0.0,90,0.00,,,0.02,,2013-05-25 13:11:00,
2013-05-25 09:22:00,44.0,39.0,30.46,West,277,0.0,0.0,84,0.00,,,0.02,,2013-05-25 13:22:00,
2013-05-25 09:32:00,44.0,39.0,30.47,NW,317,0.0,0.0,84,0.00,,,0.02,,2013-05-25 13:32:00,
2013-05-25 09:42:00,44.0,39.0,30.47,NW,317,0.0,0.0,84,0.00,,,0.02,,2013-05-25 13:42:00,
2013-05-25 09:52:00,46.0,40.0,30.47,SW,235,0.0,0.0,80,0.00,,,0.02,,2013-05-25 13:52:00,
2013-05-25 10:02:00,48.0,40.0,30.47,WNW,303,0.0,0.0,73,0.00,,,0.02,,2013-05-25 14:02:00,
2013-05-25 10:11:00,48.0,40.0,30.47,WNW,303,0.0,0.0,73,0.00,,,0.02,,2013-05-25 14:11:00,
2013-05-25 10:22:00,48.0,40.0,30.47,WNW,303,0.0,0.0,73,0.00,,,0.02,,2013-05-25 14:22:00,
2013-05-25 10:32:00,50.0,41.0,30.48,NW,321,0.0,0.0,71,0.00,,,0.01,,2013-05-25 14:32:00,
2013-05-25 10:42:00,50.0,41.0,30.48,NW,321,0.0,0.0,71,0.00,,,0.01,,2013-05-25 14:42:00,
2013-05-25 10:52:00,52.0,40.0,30.47,NNW,339,0.0,0.0,63,0.00,,,0.01,,2013-05-25 14:52:00,
2013-05-25 11:01:00,53.0,41.0,30.45,NNW,327,0.0,0.0,64,0.00,,,0.01,,2013-05-25 15:01:00,
2013-05-25 11:11:00,53.0,41.0,30.45,NNW,327,0.0,0.0,64,0.00,,,0.01,,2013-05-25 15:11:00,
2013-05-25 11:22:00,54.0,40.0,30.45,North,5,0.0,0.0,59,0.00,,,0.01,,2013-05-25 15:22:00,
2013-05-25 11:33:00,55.0,41.0,30.44,North,4,0.0,0.0,58,0.00,,,0.01,,2013-05-25 15:33:00,
2013-05-25 11:43:00,55.0,41.0,30.44,North,4,0.0,0.0,58,0.00,,,0.01,,2013-05-25 15:43:00,
2013-05-25 11:53:00,55.0,40.0,30.44,NNE,23,0.0,0.0,56,0.00,,,0.01,,2013-05-25 15:53:00,
2013-05-25 12:03:00,57.0,35.0,30.44,ENE,71,0.0,0.0,43,0.00,,,0.01,,2013-05-25 16:03:00,
2013-05-25 12:12:00,57.0,35.0,30.44,ENE,71,0.0,0.0,43,0.00,,,0.01,,2013-05-25 16:12:00,
2013-05-25 12:23:00,58.0,34.0,30.45,ESE,109,0.0,0.0,41,0.00,,,0.01,,2013-05-25 16:23:00,
2013-05-25 12:32:00,58.0,36.0,30.44,East,81,0.0,0.0,44,0.00,,,0.01,,2013-05-25 16:32:00,
2013-05-25 12:42:00,58.0,36.0,30.44,East,81,0.0,0.0,44,0.00,,,0.01,,2013-05-25 16:42:00,
2013-05-25 12:52:00,58.0,35.0,30.42,East,87,0.0,0.0,42,0.00,,,0.01,,2013-05-25 16:52:00,
2013-05-25 13:03:00,59.0,37.0,30.42,ENE,60,0.0,0.0,43,0.00,,,0.01,,2013-05-25 17:03:00,
2013-05-25 13:11:00,59.0,37.0,30.42,ENE,60,0.0,0.0,43,0.00,,,0.01,,2013-05-25 17:11:00,
2013-05-25 13:22:00,60.0,35.0,30.42,NNW,330,0.0,0.0,39,0.00,,,0.01,,2013-05-25 17:22:00,
2013-05-25 13:32:00,59.0,37.0,30.42,NNE,22,0.0,0.0,44,0.00,,,0.01,,2013-05-25 17:32:00,
2013-05-25 13:42:00,59.0,37.0,30.42,NNE,22,0.0,0.0,44,0.00,,,0.01,,2013-05-25 17:42:00,
2013-05-25 13:52:00,60.0,36.0,30.42,North,7,0.0,0.0,40,0.00,,,0.01,,2013-05-25 17:52:00,
2013-05-25 14:02:00,60.0,36.0,30.42,North,360,0.0,0.0,40,0.00,,,0.01,,2013-05-25 18:02:00,
2013-05-25 14:11:00,60.0,36.0,30.42,North,360,0.0,0.0,40,0.00,,,0.01,,2013-05-25 18:11:00,
2013-05-25 14:21:00,60.0,36.0,30.42,North,360,0.0,0.0,40,0.00,,,0.01,,2013-05-25 18:21:00,
2013-05-25 14:32:00,60.0,36.0,30.41,North,4,0.0,0.0,41,0.00,,,0.01,,2013-05-25 18:32:00,
2013-05-25 14:42:00,60.0,36.0,30.41,North,4,0.0,0.0,41,0.00,,,0.01,,2013-05-25 18:42:00,
2013-05-25 14:52:00,60.0,36.0,30.41,North,4,0.0,0.0,41,0.00,,,0.01,,2013-05-25 18:52:00,
2013-05-25 15:02:00,59.0,38.0,30.41,NNE,21,0.0,0.0,46,0.00,,,0.01,,2013-05-25 19:02:00,
2013-05-25 15:11:00,59.0,38.0,30.41,NNE,21,0.0,0.0,46,0.00,,,0.01,,2013-05-25 19:11:00,
2013-05-25 15:22:00,59.0,39.0,30.41,NNE,21,0.0,0.0,47,0.00,,,0.01,,2013-05-25 19:22:00,
2013-05-25 15:32:00,59.0,37.0,30.41,NNE,25,0.0,0.0,44,0.00,,,0.01,,2013-05-25 19:32:00,
2013-05-25 15:42:00,59.0,37.0,30.41,NNE,25,0.0,0.0,44,0.00,,,0.01,,2013-05-25 19:42:00,
2013-05-25 15:52:00,60.0,37.0,30.41,NNE,14,0.0,0.0,43,0.00,,,0.01,,2013-05-25 19:52:00,
2013-05-25 16:02:00,59.0,37.0,30.41,NNE,20,0.0,0.0,43,0.00,,,0.01,,2013-05-25 20:02:00,
2013-05-25 16:11:00,59.0,37.0,30.41,NNE,20,0.0,0.0,43,0.00,,,0.01,,2013-05-25 20:11:00,
2013-05-25 16:22:00,60.0,34.0,30.40,NNE,23,0.0,0.0,37,0.00,,,0.01,,2013-05-25 20:22:00,
2013-05-25 16:32:00,60.0,36.0,30.40,NNE,14,0.0,0.0,41,0.00,,,0.01,,2013-05-25 20:32:00,
2013-05-25 16:42:00,60.0,36.0,30.40,NNE,14,0.0,0.0,41,0.00,,,0.01,,2013-05-25 20:42:00,
2013-05-25 16:52:00,60.0,34.0,30.40,NNE,28,0.0,0.0,37,0.00,,,0.01,,2013-05-25 20:52:00,
2013-05-25 17:02:00,60.0,36.0,30.40,NNE,19,0.0,0.0,40,0.00,,,0.01,,2013-05-25 21:02:00,
2013-05-25 17:11:00,60.0,36.0,30.40,NNE,19,0.0,0.0,40,0.00,,,0.01,,2013-05-25 21:11:00,
2013-05-25 17:21:00,60.0,35.0,30.39,NNE,19,0.0,0.0,39,0.00,,,0.01,,2013-05-25 21:21:00,
2013-05-25 17:33:00,60.0,36.0,30.39,NNE,12,0.0,0.0,40,0.00,,,0.01,,2013-05-25 21:33:00,
2013-05-25 17:43:00,60.0,36.0,30.39,NNE,12,0.0,0.0,40,0.00,,,0.01,,2013-05-25 21:43:00,
2013-05-25 17:53:00,60.0,37.0,30.38,NNE,15,0.0,0.0,42,0.00,,,0.01,,2013-05-25 21:53:00,
2013-05-25 18:03:00,60.0,36.0,30.38,North,4,0.0,0.0,41,0.00,,,0.01,,2013-05-25 22:03:00,
2013-05-25 18:13:00,60.0,36.0,30.38,North,4,0.0,0.0,41,0.00,,,0.01,,2013-05-25 22:13:00,
2013-05-25 18:23:00,61.0,36.0,30.38,North,7,0.0,0.0,39,0.00,,,0.01,,2013-05-25 22:23:00,
2013-05-25 18:32:00,60.0,35.0,30.38,North,3,0.0,0.0,39,0.00,,,0.01,,2013-05-25 22:32:00,
2013-05-25 18:42:00,60.0,35.0,30.38,North,3,0.0,0.0,39,0.00,,,0.01,,2013-05-25 22:42:00,
2013-05-25 18:52:00,61.0,35.0,30.38,North,349,0.0,0.0,38,0.00,,,0.01,,2013-05-25 22:52:00,
2013-05-25 19:02:00,62.0,35.0,30.37,North,350,0.0,0.0,36,0.00,,,0.01,,2013-05-25 23:02:00,
2013-05-25 19:12:00,62.0,35.0,30.37,North,350,0.0,0.0,36,0.00,,,0.01,,2013-05-25 23:12:00,
2013-05-25 19:22:00,61.0,35.0,30.37,North,7,0.0,0.0,38,0.00,,,0.01,,2013-05-25 23:22:00,
2013-05-25 19:32:00,60.0,35.0,30.37,North,9,0.0,0.0,39,0.00,,,0.01,,2013-05-25 23:32:00,
2013-05-25 19:42:00,59.0,35.0,30.37,NNE,29,0.0,0.0,41,0.00,,,0.01,,2013-05-25 23:42:00,
2013-05-25 19:52:00,59.0,35.0,30.37,NNE,29,0.0,0.0,41,0.00,,,0.01,,2013-05-25 23:52:00,
2013-05-25 20:02:00,58.0,34.0,30.36,NE,34,0.0,0.0,41,0.00,,,0.01,,2013-05-26 00:02:00,
2013-05-25 20:11:00,58.0,34.0,30.36,NE,34,0.0,0.0,41,0.00,,,0.01,,2013-05-26 00:11:00,
2013-05-25 20:22:00,58.0,35.0,30.36,NE,34,0.0,0.0,42,0.00,,,0.01,,2013-05-26 00:22:00,
2013-05-25 20:31:00,57.0,35.0,30.36,NNE,13,0.0,0.0,44,0.00,,,0.01,,2013-05-26 00:31:00,
2013-05-25 20:42:00,57.0,35.0,30.36,NNE,13,0.0,0.0,44,0.00,,,0.01,,2013-05-26 00:42:00,
2013-05-25 20:52:00,57.0,36.0,30.36,NE,36,0.0,0.0,46,0.00,,,0.01,,2013-05-26 00:52:00,
2013-05-25 21:01:00,55.0,36.0,30.35,North,9,0.0,0.0,48,0.00,,,0.01,,2013-05-26 01:01:00,
2013-05-25 21:11:00,55.0,36.0,30.35,North,9,0.0,0.0,48,0.00,,,0.01,,2013-05-26 01:11:00,
2013-05-25 21:21:00,54.0,37.0,30.35,North,9,0.0,0.0,53,0.00,,,0.01,,2013-05-26 01:21:00,
2013-05-25 21:32:00,53.0,38.0,30.35,North,9,0.0,0.0,57,0.00,,,0.01,,2013-05-26 01:32:00,
2013-05-25 21:42:00,53.0,38.0,30.35,North,9,0.0,0.0,57,0.00,,,0.01,,2013-05-26 01:42:00,
2013-05-25 21:52:00,51.0,36.0,30.35,NE,42,0.0,0.0,57,0.00,,,0.01,,2013-05-26 01:52:00,
2013-05-25 22:02:00,49.0,35.0,30.35,NE,42,0.0,0.0,59,0.00,,,0.01,,2013-05-26 02:02:00,
2013-05-25 22:11:00,49.0,35.0,30.35,NE,42,0.0,0.0,59,0.00,,,0.01,,2013-05-26 02:11:00,
2013-05-25 22:21:00,48.0,36.0,30.36,NE,42,0.0,0.0,63,0.00,,,0.01,,2013-05-26 02:21:00,
2013-05-25 22:32:00,47.0,36.0,30.36,NE,42,0.0,0.0,65,0.00,,,0.01,,2013-05-26 02:32:00,
2013-05-25 22:42:00,47.0,36.0,30.36,NE,42,0.0,0.0,65,0.00,,,0.01,,2013-05-26 02:42:00,
2013-05-25 22:52:00,46.0,35.0,30.36,NE,42,0.0,0.0,65,0.00,,,0.01,,2013-05-26 02:52:00,
2013-05-25 23:01:00,46.0,35.0,30.37,NE,42,0.0,0.0,65,0.00,,,0.01,,2013-05-26 03:01:00,
2013-05-25 23:11:00,46.0,35.0,30.37,NE,42,0.0,0.0,65,0.00,,,0.01,,2013-05-26 03:11:00,
2013-05-25 23:22:00,45.0,35.0,30.37,NE,42,0.0,0.0,67,0.00,,,0.01,,2013-05-26 03:22:00,
2013-05-25 23:33:00,44.0,35.0,30.36,NE,42,0.0,0.0,71,0.00,,,0.01,,2013-05-26 03:33:00,
2013-05-25 23:43:00,44.0,35.0,30.36,NE,42,0.0,0.0,71,0.00,,,0.01,,2013-05-26 03:43:00,
2013-05-25 23:53:00,44.0,36.0,30.36,NE,42,0.0,0.0,72,0.00,,,0.01,,2013-05-26 03:53:00,